sensor_id;sensor_type;location;lat;lon;timestamp;temperature;humidity
58513;DHT22;44302;47.914;10.642;2023-01-04T08:06:12;5.50;99.90
58513;DHT22;44302;47.914;10.642;2023-01-04T08:08:38;5.60;99.90
58513;DHT22;44302;47.914;10.642;2023-01-04T08:11:10;5.60;99.90
58513;DHT22;44302;47.914;10.642;2023-01-04T08:13:35;5.50;99.90
58513;DHT22;44302;47.914;10.642;2023-01-04T08:16:01;5.60;99.90
58513;DHT22;44302;47.914;10.642;2023-01-04T08:18:27;5.70;99.90
58513;DHT22;44302;47.914;10.642;2023-01-04T08:21:07;5.60;99.90
58513;DHT22;44302;47.914;10.642;2023-01-04T08:23:34;5.70;99.90
58513;DHT22;44302;47.914;10.642;2023-01-04T08:26:06;5.80;99.90
58513;DHT22;44302;47.914;10.642;2023-01-04T08:28:32;6.10;99.90
58513;DHT22;44302;47.914;10.642;2023-01-04T08:31:04;6.30;99.90
58513;DHT22;44302;47.914;10.642;2023-01-04T08:33:30;6.40;99.90
58513;DHT22;44302;47.914;10.642;2023-01-04T08:36:09;6.50;99.90
58513;DHT22;44302;47.914;10.642;2023-01-04T08:38:36;6.80;99.90
58513;DHT22;44302;47.914;10.642;2023-01-04T08:41:02;7.40;99.90
58513;DHT22;44302;47.914;10.642;2023-01-04T08:43:28;7.90;99.90
58513;DHT22;44302;47.914;10.642;2023-01-04T08:45:53;8.10;99.90
58513;DHT22;44302;47.914;10.642;2023-01-04T08:48:19;8.60;99.90
58513;DHT22;44302;47.914;10.642;2023-01-04T08:50:44;8.70;99.90
58513;DHT22;44302;47.914;10.642;2023-01-04T08:53:10;8.50;99.90
58513;DHT22;44302;47.914;10.642;2023-01-04T08:55:37;8.90;99.90
58513;DHT22;44302;47.914;10.642;2023-01-04T08:58:02;9.10;99.90
58513;DHT22;44302;47.914;10.642;2023-01-04T09:00:29;9.00;99.90
58513;DHT22;44302;47.914;10.642;2023-01-04T09:02:55;9.20;99.90
58513;DHT22;44302;47.914;10.642;2023-01-04T09:05:21;9.70;99.90
58513;DHT22;44302;47.914;10.642;2023-01-04T09:07:47;9.60;99.90
58513;DHT22;44302;47.914;10.642;2023-01-04T09:10:13;9.00;99.90
58513;DHT22;44302;47.914;10.642;2023-01-04T09:12:38;8.60;99.90
58513;DHT22;44302;47.914;10.642;2023-01-04T09:15:04;8.10;99.90
58513;DHT22;44302;47.914;10.642;2023-01-04T09:17:30;7.80;99.90
58513;DHT22;44302;47.914;10.642;2023-01-04T09:19:56;7.90;99.90
58513;DHT22;44302;47.914;10.642;2023-01-04T09:22:21;7.90;99.90
58513;DHT22;44302;47.914;10.642;2023-01-04T09:24:47;8.00;99.90
58513;DHT22;44302;47.914;10.642;2023-01-04T09:27:13;8.10;99.90
58513;DHT22;44302;47.914;10.642;2023-01-04T09:29:38;8.30;99.90
58513;DHT22;44302;47.914;10.642;2023-01-04T09:32:05;8.80;99.90
58513;DHT22;44302;47.914;10.642;2023-01-04T09:34:31;9.40;99.90
58513;DHT22;44302;47.914;10.642;2023-01-04T09:36:57;9.70;99.90
58513;DHT22;44302;47.914;10.642;2023-01-04T09:39:22;9.30;99.90
58513;DHT22;44302;47.914;10.642;2023-01-04T09:41:58;9.30;99.90
58513;DHT22;44302;47.914;10.642;2023-01-04T09:44:38;9.20;99.90
58513;DHT22;44302;47.914;10.642;2023-01-04T09:47:25;9.00;99.90
58513;DHT22;44302;47.914;10.642;2023-01-04T09:49:56;8.70;99.90
58513;DHT22;44302;47.914;10.642;2023-01-04T09:53:40;8.40;99.90
58513;DHT22;44302;47.914;10.642;2023-01-04T09:55:37;8.20;99.90
58513;DHT22;44302;47.914;10.642;2023-01-04T09:58:29;8.10;99.90
58513;DHT22;44302;47.914;10.642;2023-01-04T10:01:22;8.00;99.90
58513;DHT22;44302;47.914;10.642;2023-01-04T10:04:12;7.90;99.90
58513;DHT22;44302;47.914;10.642;2023-01-04T10:06:39;7.90;99.90
58513;DHT22;44302;47.914;10.642;2023-01-04T10:09:16;7.80;99.90
58513;DHT22;44302;47.914;10.642;2023-01-04T10:22:24;7.60;99.90
58513;DHT22;44302;47.914;10.642;2023-01-04T10:32:45;7.60;99.90
58513;DHT22;44302;47.914;10.642;2023-01-04T10:37:44;7.70;99.90
58513;DHT22;44302;47.914;10.642;2023-01-04T10:40:14;7.70;99.90
58513;DHT22;44302;47.914;10.642;2023-01-04T10:45:59;7.70;99.90
58513;DHT22;44302;47.914;10.642;2023-01-04T10:51:03;7.80;99.90
58513;DHT22;44302;47.914;10.642;2023-01-04T10:56:14;7.90;99.90
58513;DHT22;44302;47.914;10.642;2023-01-04T11:01:24;8.00;99.90
58513;DHT22;44302;47.914;10.642;2023-01-04T11:04:26;8.00;99.90
58513;DHT22;44302;47.914;10.642;2023-01-04T11:09:32;8.30;99.90
58513;DHT22;44302;47.914;10.642;2023-01-04T11:12:00;8.30;99.90
58513;DHT22;44302;47.914;10.642;2023-01-04T11:14:27;8.50;99.90
58513;DHT22;44302;47.914;10.642;2023-01-04T11:16:58;8.70;99.90
58513;DHT22;44302;47.914;10.642;2023-01-04T11:19:27;8.90;99.90
58513;DHT22;44302;47.914;10.642;2023-01-04T11:21:58;9.00;99.90
58513;DHT22;44302;47.914;10.642;2023-01-04T11:24:29;9.00;99.90
58513;DHT22;44302;47.914;10.642;2023-01-04T11:26:58;9.00;99.90
58513;DHT22;44302;47.914;10.642;2023-01-04T11:29:40;9.20;99.90
58513;DHT22;44302;47.914;10.642;2023-01-04T11:32:16;9.40;99.90
58513;DHT22;44302;47.914;10.642;2023-01-04T11:34:51;9.60;99.90
58513;DHT22;44302;47.914;10.642;2023-01-04T11:37:37;9.50;99.90
58513;DHT22;44302;47.914;10.642;2023-01-04T11:40:19;9.60;99.90
58513;DHT22;44302;47.914;10.642;2023-01-04T11:43:01;9.60;99.90
58513;DHT22;44302;47.914;10.642;2023-01-04T11:45:34;9.50;99.90
58513;DHT22;44302;47.914;10.642;2023-01-04T11:48:00;9.40;99.90
58513;DHT22;44302;47.914;10.642;2023-01-04T11:55:50;9.20;99.90
58513;DHT22;44302;47.914;10.642;2023-01-04T11:58:17;9.20;99.90
58513;DHT22;44302;47.914;10.642;2023-01-04T12:00:56;9.30;99.90
58513;DHT22;44302;47.914;10.642;2023-01-04T12:05:53;9.20;99.90
58513;DHT22;44302;47.914;10.642;2023-01-04T12:08:33;9.20;99.90
58513;DHT22;44302;47.914;10.642;2023-01-04T12:11:02;9.20;99.90
58513;DHT22;44302;47.914;10.642;2023-01-04T12:13:28;9.10;99.90
58513;DHT22;44302;47.914;10.642;2023-01-04T12:18:41;9.00;99.90
58513;DHT22;44302;47.914;10.642;2023-01-04T12:21:22;8.90;99.90
58513;DHT22;44302;47.914;10.642;2023-01-04T12:23:48;8.90;99.90
58513;DHT22;44302;47.914;10.642;2023-01-04T12:26:15;8.90;99.90
58513;DHT22;44302;47.914;10.642;2023-01-04T12:28:44;8.90;99.90
58513;DHT22;44302;47.914;10.642;2023-01-04T12:33:49;8.90;99.90
58513;DHT22;44302;47.914;10.642;2023-01-04T12:36:19;8.90;99.90
58513;DHT22;44302;47.914;10.642;2023-01-04T12:50:04;9.00;99.90
58513;DHT22;44302;47.914;10.642;2023-01-04T12:55:00;9.00;99.90
58513;DHT22;44302;47.914;10.642;2023-01-04T12:57:34;9.00;99.90
58513;DHT22;44302;47.914;10.642;2023-01-04T13:02:43;9.20;99.00
58513;DHT22;44302;47.914;10.642;2023-01-04T13:07:53;9.30;98.40
58513;DHT22;44302;47.914;10.642;2023-01-04T13:10:34;9.40;98.10
58513;DHT22;44302;47.914;10.642;2023-01-04T13:13:14;9.40;97.50
58513;DHT22;44302;47.914;10.642;2023-01-04T13:23:57;9.60;96.10
58513;DHT22;44302;47.914;10.642;2023-01-04T13:29:12;9.60;95.70
58513;DHT22;44302;47.914;10.642;2023-01-04T13:34:33;9.40;96.20
58513;DHT22;44302;47.914;10.642;2023-01-04T13:39:37;9.40;96.40
58513;DHT22;44302;47.914;10.642;2023-01-04T13:42:05;9.40;97.00
58513;DHT22;44302;47.914;10.642;2023-01-04T13:46:57;9.40;96.60
58513;DHT22;44302;47.914;10.642;2023-01-04T13:49:23;9.40;96.80
58513;DHT22;44302;47.914;10.642;2023-01-04T13:51:49;9.50;96.50
58513;DHT22;44302;47.914;10.642;2023-01-04T13:54:21;9.50;96.60
58513;DHT22;44302;47.914;10.642;2023-01-04T13:56:47;9.50;96.10
58513;DHT22;44302;47.914;10.642;2023-01-04T13:59:15;9.60;96.70
58513;DHT22;44302;47.914;10.642;2023-01-04T14:01:46;9.50;96.20
58513;DHT22;44302;47.914;10.642;2023-01-04T14:04:21;9.50;96.30
58513;DHT22;44302;47.914;10.642;2023-01-04T14:06:51;9.60;96.00
58513;DHT22;44302;47.914;10.642;2023-01-04T14:09:21;9.60;96.20
58513;DHT22;44302;47.914;10.642;2023-01-04T14:11:52;9.70;96.90
58513;DHT22;44302;47.914;10.642;2023-01-04T14:14:38;9.70;96.20
58513;DHT22;44302;47.914;10.642;2023-01-04T14:22:34;9.70;96.70
58513;DHT22;44302;47.914;10.642;2023-01-04T14:27:45;9.60;97.00
58513;DHT22;44302;47.914;10.642;2023-01-04T14:32:59;9.60;97.50
58513;DHT22;44302;47.914;10.642;2023-01-04T14:35:26;9.50;97.80
58513;DHT22;44302;47.914;10.642;2023-01-04T14:37:53;9.50;98.20
58513;DHT22;44302;47.914;10.642;2023-01-04T14:40:28;9.50;98.40
58513;DHT22;44302;47.914;10.642;2023-01-04T14:42:55;9.50;97.60
58513;DHT22;44302;47.914;10.642;2023-01-04T14:45:21;9.50;97.40
58513;DHT22;44302;47.914;10.642;2023-01-04T14:47:47;9.50;98.50
58513;DHT22;44302;47.914;10.642;2023-01-04T14:50:13;9.50;99.00
58513;DHT22;44302;47.914;10.642;2023-01-04T14:52:39;9.40;99.60
58513;DHT22;44302;47.914;10.642;2023-01-04T14:55:05;9.40;99.90
58513;DHT22;44302;47.914;10.642;2023-01-04T14:57:32;9.40;99.90
58513;DHT22;44302;47.914;10.642;2023-01-04T14:59:59;9.30;99.90
58513;DHT22;44302;47.914;10.642;2023-01-04T15:02:25;9.30;99.90
58513;DHT22;44302;47.914;10.642;2023-01-04T15:04:51;9.20;99.90
58513;DHT22;44302;47.914;10.642;2023-01-04T15:09:57;9.00;99.90
58513;DHT22;44302;47.914;10.642;2023-01-04T15:12:22;9.00;99.90
58513;DHT22;44302;47.914;10.642;2023-01-04T15:14:48;8.90;99.90
58513;DHT22;44302;47.914;10.642;2023-01-04T15:17:13;8.80;99.90
58513;DHT22;44302;47.914;10.642;2023-01-04T15:19:39;8.70;99.90
58513;DHT22;44302;47.914;10.642;2023-01-04T15:22:05;8.50;99.90
58513;DHT22;44302;47.914;10.642;2023-01-04T15:24:30;8.30;99.90
58513;DHT22;44302;47.914;10.642;2023-01-04T15:26:56;8.20;99.90
58513;DHT22;44302;47.914;10.642;2023-01-04T15:29:22;8.20;99.90
58513;DHT22;44302;47.914;10.642;2023-01-04T15:31:47;8.10;99.90
58513;DHT22;44302;47.914;10.642;2023-01-04T15:34:13;8.10;99.90
58513;DHT22;44302;47.914;10.642;2023-01-04T15:36:39;8.10;99.90
58513;DHT22;44302;47.914;10.642;2023-01-04T15:39:05;8.10;99.90
58513;DHT22;44302;47.914;10.642;2023-01-04T15:41:31;8.00;99.90
58513;DHT22;44302;47.914;10.642;2023-01-04T15:44:15;8.00;99.90
58513;DHT22;44302;47.914;10.642;2023-01-04T15:46:41;7.90;99.90
58513;DHT22;44302;47.914;10.642;2023-01-04T15:49:06;7.90;99.90
58513;DHT22;44302;47.914;10.642;2023-01-04T15:51:32;7.80;99.90
58513;DHT22;44302;47.914;10.642;2023-01-04T15:53:58;7.70;99.90
